createdAt,value
2017-12-02T00:01:52.613Z,18.70
2017-12-02T00:04:20.559Z,18.67
2017-12-02T00:06:48.080Z,17.90
2017-12-02T00:09:16.389Z,17.60
2017-12-02T00:11:43.919Z,16.73
2017-12-02T00:14:12.226Z,17.20
2017-12-02T00:16:39.738Z,17.43
2017-12-02T00:19:07.295Z,19.10
2017-12-02T00:21:34.821Z,18.83
2017-12-02T00:24:02.372Z,16.43
2017-12-02T00:26:29.897Z,17.30
2017-12-02T00:28:58.216Z,16.33
2017-12-02T00:31:25.752Z,18.60
2017-12-02T00:33:54.066Z,16.57
2017-12-02T00:36:21.594Z,16.47
2017-12-02T00:38:49.529Z,16.87
2017-12-02T00:41:17.051Z,16.10
2017-12-02T00:43:44.591Z,17.67
2017-12-02T00:46:12.503Z,17.03
2017-12-02T00:48:40.046Z,16.67
2017-12-02T00:51:07.580Z,16.83
2017-12-02T00:53:35.131Z,16.70
2017-12-02T00:56:02.649Z,16.60
2017-12-02T00:58:30.177Z,17.53
2017-12-02T01:00:58.489Z,15.73
2017-12-02T01:03:26.010Z,17.70
2017-12-02T01:05:53.556Z,17.27
2017-12-02T01:08:21.082Z,17.27
2017-12-02T01:10:48.625Z,17.73
2017-12-02T01:13:16.149Z,17.90
2017-12-02T01:15:43.694Z,20.07
2017-12-02T01:18:11.217Z,17.90
2017-12-02T01:20:39.154Z,18.40
2017-12-02T01:23:06.686Z,16.93
2017-12-02T01:25:34.241Z,18.10
2017-12-02T01:28:01.757Z,16.83
2017-12-02T01:30:29.301Z,16.40
2017-12-02T01:32:56.821Z,16.27
2017-12-02T01:35:24.365Z,16.17
2017-12-02T01:37:52.656Z,16.50
2017-12-02T01:40:20.187Z,17.77
2017-12-02T01:42:47.702Z,17.13
2017-12-02T01:45:15.243Z,15.53
2017-12-02T01:47:42.824Z,16.27
2017-12-02T01:50:10.378Z,16.47
2017-12-02T01:52:37.899Z,16.23
2017-12-02T01:55:06.211Z,16.17
2017-12-02T01:57:33.729Z,16.73
2017-12-02T02:00:02.030Z,15.47
2017-12-02T02:02:29.546Z,16.43
2017-12-02T02:04:57.091Z,15.03
2017-12-02T02:07:24.610Z,16.37
2017-12-02T02:09:52.147Z,15.40
2017-12-02T02:12:20.454Z,15.90
2017-12-02T02:14:47.979Z,15.50
2017-12-02T02:17:15.923Z,13.23
2017-12-02T02:19:44.200Z,14.60
2017-12-02T02:22:11.733Z,15.90
2017-12-02T02:24:39.253Z,14.57
2017-12-02T02:27:07.191Z,15.00
2017-12-02T02:29:34.721Z,17.53
2017-12-02T02:32:02.261Z,15.40
2017-12-02T02:34:29.795Z,16.13
2017-12-02T02:36:57.355Z,17.10
2017-12-02T02:39:24.879Z,15.57
2017-12-02T02:41:52.419Z,15.70
2017-12-02T02:44:19.937Z,15.50
2017-12-02T02:46:48.260Z,15.93
2017-12-02T02:49:16.962Z,16.10
2017-12-02T02:51:44.505Z,14.57
2017-12-02T02:54:12.025Z,13.67
2017-12-02T02:56:40.330Z,14.97
2017-12-02T02:59:07.849Z,15.77
2017-12-02T03:01:35.398Z,14.60
2017-12-02T03:04:02.914Z,14.53
2017-12-02T03:06:30.460Z,15.73
2017-12-02T03:08:57.978Z,15.50
2017-12-02T03:11:25.522Z,15.77
2017-12-02T03:13:53.046Z,15.27
2017-12-02T03:16:20.587Z,15.63
2017-12-02T03:18:48.866Z,15.60
2017-12-02T03:21:17.166Z,16.17
2017-12-02T03:23:44.700Z,17.83
2017-12-02T03:26:13.009Z,17.10
2017-12-02T03:28:40.540Z,15.17
2017-12-02T03:31:08.837Z,15.67
2017-12-02T03:33:36.372Z,14.73
2017-12-02T03:36:04.658Z,17.40
2017-12-02T03:38:32.602Z,15.57
2017-12-02T03:41:00.513Z,14.80
2017-12-02T03:43:28.046Z,16.67
2017-12-02T03:45:56.335Z,15.07
2017-12-02T03:48:24.649Z,15.53
2017-12-02T03:50:52.175Z,15.10
2017-12-02T03:53:20.114Z,15.20
2017-12-02T03:55:47.642Z,15.47
2017-12-02T03:58:15.196Z,15.47
2017-12-02T04:00:42.714Z,13.13
2017-12-02T04:03:10.654Z,15.10
2017-12-02T04:05:38.177Z,16.10
2017-12-02T04:08:06.487Z,16.80
2017-12-02T04:10:34.039Z,14.40
2017-12-02T04:13:01.575Z,17.50
2017-12-02T04:15:29.867Z,15.83
2017-12-02T04:17:57.801Z,17.80
2017-12-02T04:20:25.339Z,17.00
2017-12-02T04:22:52.876Z,19.30
2017-12-02T04:25:20.408Z,17.43
2017-12-02T04:27:47.950Z,18.80
2017-12-02T04:30:15.477Z,18.97
2017-12-02T04:32:43.019Z,18.00
2017-12-02T04:35:10.538Z,20.10
2017-12-02T04:37:38.083Z,20.87
2017-12-02T04:40:05.598Z,20.00
2017-12-02T04:42:33.138Z,18.10
2017-12-02T04:45:00.658Z,18.63
2017-12-02T04:47:28.191Z,18.80
2017-12-02T04:49:55.808Z,17.53
2017-12-02T04:52:23.293Z,17.93
2017-12-02T04:54:50.854Z,18.00
2017-12-02T04:57:18.379Z,19.37
2017-12-02T04:59:45.922Z,17.53
2017-12-02T05:02:13.449Z,18.03
2017-12-02T05:04:41.770Z,17.40
2017-12-02T05:07:09.289Z,18.20
2017-12-02T05:09:36.830Z,19.10
2017-12-02T05:12:05.117Z,19.20
2017-12-02T05:14:32.661Z,16.70
2017-12-02T05:17:00.174Z,18.30
2017-12-02T05:19:29.102Z,18.40
2017-12-02T05:21:56.666Z,17.43
2017-12-02T05:24:24.203Z,16.03
2017-12-02T05:26:51.736Z,17.23
2017-12-02T05:29:20.058Z,19.30
2017-12-02T05:31:47.634Z,17.57
2017-12-02T05:34:15.563Z,17.90
2017-12-02T05:36:43.098Z,17.50
2017-12-02T05:39:12.008Z,17.40
2017-12-02T05:41:39.935Z,20.43
2017-12-02T05:44:07.475Z,20.70
2017-12-02T05:46:35.772Z,21.10
2017-12-02T05:49:03.313Z,21.63
2017-12-02T05:51:30.833Z,24.33
2017-12-02T05:53:58.387Z,22.07
2017-12-02T05:56:25.904Z,24.00
2017-12-02T05:58:53.433Z,18.60
2017-12-02T06:01:20.984Z,22.10
2017-12-02T06:03:48.516Z,19.70
2017-12-02T06:06:16.831Z,19.87
2017-12-02T06:08:44.362Z,18.80
2017-12-02T06:11:12.742Z,18.40
2017-12-02T06:13:41.030Z,18.20
2017-12-02T06:16:08.574Z,17.13
2017-12-02T06:18:36.857Z,14.40
2017-12-02T06:21:05.160Z,15.83
2017-12-02T06:23:33.074Z,14.57
2017-12-02T06:26:00.633Z,15.47
2017-12-02T06:28:28.170Z,15.60
2017-12-02T06:30:56.485Z,14.93
2017-12-02T06:33:24.318Z,16.97
2017-12-02T06:35:51.860Z,15.77
2017-12-02T06:38:19.382Z,15.30
2017-12-02T06:40:47.696Z,15.57
2017-12-02T06:43:15.215Z,16.13
2017-12-02T06:45:43.157Z,14.97
2017-12-02T06:48:10.678Z,14.30
2017-12-02T06:50:38.210Z,17.63
2017-12-02T06:53:06.490Z,17.90
2017-12-02T06:55:34.797Z,17.53
2017-12-02T06:58:02.328Z,15.93
2017-12-02T07:00:30.637Z,16.07
2017-12-02T07:02:58.161Z,16.90
2017-12-02T07:05:26.466Z,15.93
2017-12-02T07:07:54.757Z,16.97
2017-12-02T07:10:22.285Z,16.80
2017-12-02T07:12:49.823Z,16.07
2017-12-02T07:15:17.354Z,17.80
2017-12-02T07:17:44.914Z,15.97
2017-12-02T07:20:12.462Z,17.50
2017-12-02T07:22:40.011Z,16.50
2017-12-02T07:25:07.534Z,16.97
2017-12-02T07:27:35.849Z,16.20
2017-12-02T07:30:03.377Z,17.30
2017-12-02T07:32:31.688Z,17.40
2017-12-02T07:34:59.213Z,17.43
2017-12-02T07:37:27.089Z,17.60
2017-12-02T07:39:54.622Z,18.00
2017-12-02T07:42:22.283Z,18.30
2017-12-02T07:44:50.935Z,16.87
2017-12-02T07:47:19.328Z,17.13
2017-12-02T07:49:46.850Z,16.63
2017-12-02T07:52:14.394Z,17.60
2017-12-02T07:54:42.673Z,19.40
2017-12-02T07:57:10.838Z,18.23
2017-12-02T07:59:38.763Z,15.30
2017-12-02T08:02:06.309Z,18.40
2017-12-02T08:04:33.833Z,16.70
2017-12-02T08:07:02.147Z,19.13
2017-12-02T08:09:29.673Z,16.83
2017-12-02T08:11:57.985Z,17.03
2017-12-02T08:14:25.900Z,18.37
2017-12-02T08:16:53.443Z,16.87
2017-12-02T08:19:21.973Z,16.10
2017-12-02T08:21:49.522Z,15.67
2017-12-02T08:24:17.831Z,15.50
2017-12-02T08:26:45.383Z,12.93
2017-12-02T08:29:12.903Z,16.60
2017-12-02T08:31:41.189Z,14.90
2017-12-02T08:34:09.501Z,15.60
2017-12-02T08:36:37.022Z,14.90
2017-12-02T08:39:04.985Z,15.70
2017-12-02T08:41:32.502Z,15.80
2017-12-02T08:44:00.029Z,15.30
2017-12-02T08:46:27.546Z,14.90
2017-12-02T08:48:55.102Z,30.60
2017-12-02T08:51:22.635Z,17.10
2017-12-02T08:53:50.170Z,30.30
2017-12-02T08:56:17.686Z,18.37
2017-12-02T08:58:45.220Z,18.20
2017-12-02T09:01:12.733Z,16.37
2017-12-02T09:03:40.282Z,15.90
2017-12-02T09:06:08.570Z,14.60
2017-12-02T09:08:36.875Z,15.63
2017-12-02T09:11:04.391Z,15.40
2017-12-02T09:13:31.930Z,21.63
2017-12-02T09:15:59.462Z,19.67
2017-12-02T09:18:27.003Z,14.70
2017-12-02T09:20:54.523Z,16.23
2017-12-02T09:23:22.467Z,15.30
2017-12-02T09:25:49.985Z,14.43
2017-12-02T09:28:18.309Z,14.40
2017-12-02T09:30:45.831Z,15.90
2017-12-02T09:33:13.364Z,15.57
2017-12-02T09:35:42.469Z,15.50
2017-12-02T09:38:10.782Z,14.90
2017-12-02T09:40:38.311Z,13.10
2017-12-02T09:43:06.634Z,14.70
2017-12-02T09:45:36.841Z,15.20
2017-12-02T09:48:04.388Z,15.40
2017-12-02T09:50:32.531Z,15.30
2017-12-02T09:53:00.469Z,14.80
2017-12-02T09:55:28.015Z,13.80
2017-12-02T09:57:55.975Z,13.70
2017-12-02T10:00:23.518Z,15.43
2017-12-02T10:02:51.054Z,14.13
2017-12-02T10:05:19.375Z,14.70
2017-12-02T10:07:47.546Z,15.20
2017-12-02T10:10:15.082Z,15.53
2017-12-02T10:12:42.609Z,14.30
2017-12-02T10:15:13.113Z,14.37
2017-12-02T10:17:40.645Z,14.27
2017-12-02T10:20:09.638Z,15.10
2017-12-02T10:22:37.366Z,15.23
2017-12-02T10:25:05.694Z,14.27
2017-12-02T10:27:33.218Z,10.83
2017-12-02T10:30:01.545Z,13.07
2017-12-02T10:32:29.087Z,13.83
2017-12-02T10:34:56.616Z,12.80
2017-12-02T10:37:25.354Z,14.07
2017-12-02T10:39:52.898Z,13.73
2017-12-02T10:42:20.416Z,14.90
2017-12-02T10:44:49.155Z,13.13
2017-12-02T10:47:16.689Z,14.53
2017-12-02T10:49:44.240Z,14.43
2017-12-02T10:52:11.762Z,14.90
2017-12-02T10:54:39.292Z,15.00
2017-12-02T10:57:06.809Z,15.63
2017-12-02T10:59:35.967Z,15.13
2017-12-02T11:02:04.131Z,15.70
2017-12-02T11:04:31.670Z,16.20
2017-12-02T11:06:59.206Z,15.07
2017-12-02T11:09:28.322Z,15.40
2017-12-02T11:11:55.854Z,14.20
2017-12-02T11:14:23.381Z,15.70
2017-12-02T11:16:52.315Z,16.30
2017-12-02T11:19:19.833Z,15.90
2017-12-02T11:21:47.370Z,15.73
2017-12-02T11:24:14.890Z,16.87
2017-12-02T11:26:42.430Z,16.77
2017-12-02T11:29:09.950Z,15.33
2017-12-02T11:31:37.489Z,15.27
2017-12-02T11:34:07.698Z,17.10
2017-12-02T11:36:35.238Z,15.60
2017-12-02T11:39:03.582Z,15.30
2017-12-02T11:41:31.861Z,16.40
2017-12-02T11:43:59.394Z,17.43
2017-12-02T11:46:26.946Z,14.37
2017-12-02T11:48:55.425Z,15.53
2017-12-02T11:51:22.981Z,15.10
2017-12-02T11:53:51.303Z,14.83
2017-12-02T11:56:18.878Z,14.77
2017-12-02T11:58:46.403Z,13.97
2017-12-02T12:01:13.946Z,14.67
2017-12-02T12:03:41.466Z,17.10
2017-12-02T12:06:11.085Z,13.30
2017-12-02T12:08:38.605Z,14.00
2017-12-02T12:11:06.582Z,13.83
2017-12-02T12:13:34.870Z,14.70
2017-12-02T12:16:02.412Z,14.93
2017-12-02T12:18:30.339Z,14.70
2017-12-02T12:20:59.082Z,12.50
2017-12-02T12:23:26.611Z,14.10
2017-12-02T12:25:54.178Z,13.87
2017-12-02T12:28:22.605Z,14.20
2017-12-02T12:30:50.137Z,12.90
2017-12-02T12:33:17.682Z,14.27
2017-12-02T12:35:45.201Z,14.27
2017-12-02T12:38:13.882Z,13.10
2017-12-02T12:40:41.406Z,13.70
2017-12-02T12:43:08.984Z,14.80
2017-12-02T12:45:37.270Z,14.13
2017-12-02T12:48:05.215Z,12.63
2017-12-02T12:50:32.750Z,14.83
2017-12-02T12:53:00.429Z,14.60
2017-12-02T12:55:27.954Z,14.60
2017-12-02T12:57:56.281Z,15.77
2017-12-02T13:00:23.806Z,14.83
2017-12-02T13:02:52.114Z,13.93
2017-12-02T13:05:19.633Z,14.23
2017-12-02T13:07:47.177Z,14.07
2017-12-02T13:10:15.461Z,16.00
2017-12-02T13:12:43.778Z,13.93
2017-12-02T13:15:12.097Z,16.00
2017-12-02T13:17:39.646Z,13.73
2017-12-02T13:20:07.169Z,15.53
2017-12-02T13:22:34.711Z,14.57
2017-12-02T13:25:03.020Z,14.10
2017-12-02T13:27:30.566Z,13.60
2017-12-02T13:29:58.097Z,13.67
2017-12-02T13:32:26.414Z,14.97
2017-12-02T13:34:53.943Z,14.87
2017-12-02T13:37:21.491Z,13.10
2017-12-02T13:39:49.794Z,12.67
2017-12-02T13:42:18.710Z,14.43
2017-12-02T13:44:46.251Z,14.37
2017-12-02T13:47:14.173Z,13.87
2017-12-02T13:49:42.487Z,13.27
2017-12-02T13:52:10.018Z,13.03
2017-12-02T13:54:37.567Z,12.67
2017-12-02T13:57:05.674Z,12.67
2017-12-02T13:59:33.215Z,12.77
2017-12-02T14:02:00.735Z,12.47
2017-12-02T14:04:29.219Z,13.53
2017-12-02T14:06:56.751Z,11.60
2017-12-02T14:09:24.293Z,13.77
2017-12-02T14:11:52.681Z,12.97
2017-12-02T14:14:20.237Z,12.40
2017-12-02T14:16:49.340Z,12.37
2017-12-02T14:19:16.877Z,13.20
2017-12-02T14:21:44.403Z,11.53
2017-12-02T14:24:11.966Z,12.53
2017-12-02T14:26:40.123Z,12.97
2017-12-02T14:29:07.682Z,13.77
2017-12-02T14:31:36.039Z,12.37
2017-12-02T14:34:03.577Z,12.70
2017-12-02T14:36:33.582Z,11.93
2017-12-02T14:39:01.894Z,12.27
2017-12-02T14:41:29.413Z,12.93
2017-12-02T14:43:57.675Z,13.20
2017-12-02T14:46:25.197Z,11.63
2017-12-02T14:48:53.410Z,12.77
2017-12-02T14:51:20.918Z,13.77
2017-12-02T14:53:48.809Z,13.50
2017-12-02T14:56:16.635Z,13.97
2017-12-02T14:58:44.936Z,13.20
2017-12-02T15:01:12.473Z,12.50
2017-12-02T15:03:40.001Z,13.43
2017-12-02T15:06:07.940Z,13.47
2017-12-02T15:08:35.474Z,12.33
2017-12-02T15:11:04.622Z,12.87
2017-12-02T15:13:32.330Z,13.07
2017-12-02T15:16:00.233Z,12.60
2017-12-02T15:18:27.766Z,12.50
2017-12-02T15:20:56.069Z,13.73
2017-12-02T15:23:24.438Z,12.70
2017-12-02T15:25:52.922Z,13.83
2017-12-02T15:28:21.217Z,14.13
2017-12-02T15:30:50.439Z,12.97
2017-12-02T15:33:18.395Z,12.20
2017-12-02T15:35:46.334Z,12.73
2017-12-02T15:38:14.638Z,14.27
2017-12-02T15:40:43.705Z,13.13
2017-12-02T15:43:11.255Z,14.67
2017-12-02T15:45:39.556Z,13.50
2017-12-02T15:48:07.994Z,13.97
2017-12-02T15:50:37.104Z,13.20
2017-12-02T15:53:04.634Z,14.07
2017-12-02T15:55:32.954Z,13.70
2017-12-02T15:58:01.264Z,13.90
2017-12-02T16:00:29.583Z,13.27
2017-12-02T16:02:58.055Z,12.70
2017-12-02T16:05:26.556Z,13.40
2017-12-02T16:07:54.485Z,13.23
2017-12-02T16:10:23.526Z,11.47
2017-12-02T16:12:52.683Z,13.57
2017-12-02T16:15:21.047Z,13.40
2017-12-02T16:17:48.572Z,13.10
2017-12-02T16:20:16.940Z,13.40
2017-12-02T16:22:44.458Z,12.67
2017-12-02T16:25:12.004Z,14.73
2017-12-02T16:27:39.623Z,15.07
2017-12-02T16:30:07.862Z,14.73
2017-12-02T16:32:36.909Z,14.30
2017-12-02T16:35:05.777Z,14.17
2017-12-02T16:37:33.334Z,15.00
2017-12-02T16:40:00.856Z,13.87
2017-12-02T16:42:29.168Z,15.10
2017-12-02T16:44:57.225Z,16.40
2017-12-02T16:47:25.532Z,15.07
2017-12-02T16:49:53.062Z,15.00
2017-12-02T16:52:20.627Z,14.33
2017-12-02T16:54:48.928Z,14.73
2017-12-02T16:57:16.473Z,15.90
2017-12-02T16:59:44.002Z,16.30
2017-12-02T17:02:11.559Z,16.20
2017-12-02T17:04:39.554Z,15.70
2017-12-02T17:07:07.101Z,14.70
2017-12-02T17:09:34.631Z,14.50
2017-12-02T17:12:02.943Z,14.60
2017-12-02T17:14:30.481Z,16.90
2017-12-02T17:16:58.024Z,17.20
2017-12-02T17:19:25.915Z,16.40
2017-12-02T17:21:53.469Z,16.57
2017-12-02T17:24:21.032Z,16.10
2017-12-02T17:26:48.594Z,15.73
2017-12-02T17:29:16.921Z,16.40
2017-12-02T17:31:44.473Z,14.80
2017-12-02T17:34:11.999Z,16.70
2017-12-02T17:36:39.538Z,16.80
2017-12-02T17:39:07.060Z,15.43
2017-12-02T17:41:35.419Z,16.60
2017-12-02T17:44:02.937Z,16.37
2017-12-02T17:46:31.151Z,17.70
2017-12-02T17:48:58.713Z,16.53
2017-12-02T17:51:26.990Z,17.60
2017-12-02T17:53:55.302Z,19.20
2017-12-02T17:56:22.831Z,18.10
2017-12-02T17:58:51.141Z,16.87
2017-12-02T18:01:18.672Z,17.03
2017-12-02T18:03:46.994Z,15.73
2017-12-02T18:06:14.513Z,15.73
2017-12-02T18:08:42.053Z,17.40
2017-12-02T18:11:09.579Z,15.80
2017-12-02T18:13:37.120Z,14.77
2017-12-02T18:16:04.649Z,15.20
2017-12-02T18:18:32.607Z,15.40
2017-12-02T18:21:00.906Z,14.27
2017-12-02T18:23:30.106Z,15.97
2017-12-02T18:25:58.390Z,16.30
2017-12-02T18:28:25.936Z,15.33
2017-12-02T18:30:53.853Z,14.30
2017-12-02T18:33:21.398Z,13.47
2017-12-02T18:35:48.929Z,14.90
2017-12-02T18:38:17.230Z,15.40
2017-12-02T18:40:44.770Z,14.87
2017-12-02T18:43:13.507Z,14.37
2017-12-02T18:45:41.025Z,15.20
2017-12-02T18:48:08.570Z,15.03
2017-12-02T18:50:36.877Z,15.40
2017-12-02T18:53:04.433Z,15.83
2017-12-02T18:55:31.963Z,15.63
2017-12-02T18:57:59.539Z,17.20
2017-12-02T19:00:27.074Z,14.57
2017-12-02T19:02:54.619Z,15.50
2017-12-02T19:05:22.157Z,15.30
2017-12-02T19:07:49.697Z,17.80
2017-12-02T19:10:17.305Z,17.90
2017-12-02T19:12:45.630Z,18.17
2017-12-02T19:15:13.171Z,17.60
2017-12-02T19:17:41.461Z,15.93
2017-12-02T19:20:09.006Z,16.83
2017-12-02T19:22:36.923Z,16.10
2017-12-02T19:25:04.471Z,16.40
2017-12-02T19:27:31.994Z,18.00
2017-12-02T19:30:00.310Z,17.23
2017-12-02T19:32:27.832Z,17.57
2017-12-02T19:34:55.379Z,18.30
2017-12-02T19:37:23.100Z,19.83
2017-12-02T19:39:50.654Z,18.90
2017-12-02T19:42:18.185Z,18.67
2017-12-02T19:44:45.733Z,18.07
2017-12-02T19:47:14.079Z,18.50
2017-12-02T19:49:41.618Z,17.87
2017-12-02T19:52:09.143Z,18.80
2017-12-02T19:54:37.458Z,18.47
2017-12-02T19:57:04.983Z,18.07
2017-12-02T19:59:32.915Z,18.00
2017-12-02T20:02:00.453Z,16.80
2017-12-02T20:04:28.006Z,16.93
2017-12-02T20:06:55.543Z,18.10
2017-12-02T20:09:23.081Z,18.00
2017-12-02T20:11:51.379Z,15.27
2017-12-02T20:14:19.722Z,17.07
2017-12-02T20:16:47.249Z,15.80
2017-12-02T20:19:14.776Z,16.07
2017-12-02T20:21:42.380Z,16.27
2017-12-02T20:24:09.915Z,17.17
2017-12-02T20:26:37.462Z,15.50
2017-12-02T20:29:04.990Z,16.60
2017-12-02T20:31:32.546Z,16.20
2017-12-02T20:34:00.093Z,16.90
2017-12-02T20:36:27.637Z,17.60
2017-12-02T20:38:55.162Z,16.97
2017-12-02T20:41:22.751Z,17.73
2017-12-02T20:43:50.292Z,17.67
2017-12-02T20:46:17.833Z,16.60
2017-12-02T20:48:46.621Z,16.67
2017-12-02T20:51:14.177Z,17.27
2017-12-02T20:53:41.724Z,17.13
2017-12-02T20:56:10.042Z,16.23
2017-12-02T20:58:37.576Z,16.00
2017-12-02T21:01:05.136Z,17.23
2017-12-02T21:03:33.432Z,15.60
2017-12-02T21:06:00.973Z,14.90
2017-12-02T21:08:28.494Z,16.00
2017-12-02T21:10:56.055Z,15.37
2017-12-02T21:13:23.579Z,15.20
2017-12-02T21:15:51.122Z,15.53
2017-12-02T21:18:18.645Z,15.17
2017-12-02T21:20:46.185Z,14.33
2017-12-02T21:23:13.707Z,13.57
2017-12-02T21:25:41.250Z,13.73
2017-12-02T21:28:09.537Z,13.17
2017-12-02T21:30:37.078Z,12.50
2017-12-02T21:33:04.633Z,13.70
2017-12-02T21:35:32.152Z,13.40
2017-12-02T21:37:59.705Z,14.37
2017-12-02T21:40:28.057Z,14.20
2017-12-02T21:42:55.591Z,14.87
2017-12-02T21:45:23.123Z,13.87
2017-12-02T21:47:51.610Z,13.83
2017-12-02T21:50:19.137Z,14.13
2017-12-02T21:52:46.681Z,13.20
2017-12-02T21:55:14.218Z,14.77
2017-12-02T21:57:41.762Z,15.43
2017-12-02T22:00:11.009Z,15.90
2017-12-02T22:02:38.556Z,14.17
2017-12-02T22:05:06.080Z,15.37
2017-12-02T22:07:33.623Z,18.60
2017-12-02T22:10:01.154Z,17.10
2017-12-02T22:12:28.698Z,18.23
2017-12-02T22:14:57.143Z,20.07
2017-12-02T22:17:24.741Z,17.43
2017-12-02T22:19:53.010Z,16.20
2017-12-02T22:22:21.325Z,17.77
2017-12-02T22:24:48.853Z,16.70
2017-12-02T22:27:18.360Z,18.03
2017-12-02T22:29:45.882Z,15.97
2017-12-02T22:32:13.449Z,14.43
2017-12-02T22:34:41.996Z,12.97
2017-12-02T22:37:09.545Z,12.80
2017-12-02T22:39:37.830Z,12.00
2017-12-02T22:42:05.365Z,11.33
2017-12-02T22:44:33.282Z,12.43
2017-12-02T22:47:01.228Z,12.13
2017-12-02T22:49:28.763Z,13.53
2017-12-02T22:51:56.554Z,14.10
2017-12-02T22:54:24.073Z,13.70
2017-12-02T22:56:52.371Z,15.20
2017-12-02T22:59:19.908Z,14.53
2017-12-02T23:01:47.438Z,14.17
2017-12-02T23:04:14.990Z,12.43
2017-12-02T23:06:42.534Z,11.60
2017-12-02T23:09:10.085Z,11.07
2017-12-02T23:11:39.310Z,10.10
2017-12-02T23:14:06.860Z,12.57
2017-12-02T23:16:34.395Z,11.53
2017-12-02T23:19:01.933Z,11.90
2017-12-02T23:21:29.463Z,11.30
2017-12-02T23:23:57.012Z,11.37
2017-12-02T23:26:24.542Z,11.23
2017-12-02T23:28:52.103Z,12.53
2017-12-02T23:31:20.196Z,12.90
2017-12-02T23:33:47.734Z,11.97
2017-12-02T23:36:15.262Z,11.40
2017-12-02T23:38:42.810Z,12.23
2017-12-02T23:41:10.339Z,11.50
2017-12-02T23:43:37.878Z,11.30
2017-12-02T23:46:06.165Z,12.60
2017-12-02T23:48:33.706Z,11.40
2017-12-02T23:51:01.230Z,11.93
2017-12-02T23:53:29.553Z,12.40
2017-12-02T23:55:57.097Z,12.17
2017-12-02T23:58:24.642Z,11.00
